createdAt,value
2023-02-16T00:00:53.340Z,22.45
2023-02-16T00:03:22.080Z,23.48
2023-02-16T00:05:49.649Z,21.58
2023-02-16T00:08:16.204Z,26.00
2023-02-16T00:11:03.125Z,21.45
2023-02-16T00:13:45.414Z,20.95
2023-02-16T00:16:15.195Z,18.98
2023-02-16T00:18:41.743Z,19.83
2023-02-16T00:21:08.206Z,22.52
2023-02-16T00:23:34.605Z,22.25
2023-02-16T00:26:01.111Z,19.67
2023-02-16T00:28:27.607Z,18.65
2023-02-16T00:30:54.398Z,18.63
2023-02-16T00:33:21.677Z,20.30
2023-02-16T00:35:48.820Z,18.90
2023-02-16T00:38:15.406Z,18.70
2023-02-16T00:40:42.625Z,19.13
2023-02-16T00:43:19.802Z,18.33
2023-02-16T00:45:46.244Z,21.58
2023-02-16T00:48:12.651Z,18.67
2023-02-16T00:50:39.186Z,15.07
2023-02-16T00:53:05.627Z,20.02
2023-02-16T00:55:35.252Z,19.88
2023-02-16T00:58:13.433Z,18.95
2023-02-16T01:00:43.739Z,19.92
2023-02-16T01:03:17.353Z,18.98
2023-02-16T01:05:44.050Z,19.02
2023-02-16T01:08:32.024Z,19.35
2023-02-16T01:11:12.806Z,17.35
2023-02-16T01:13:46.059Z,18.52
2023-02-16T01:16:21.981Z,18.65
2023-02-16T01:18:49.447Z,16.90
2023-02-16T01:21:16.180Z,17.15
2023-02-16T01:23:42.659Z,21.83
2023-02-16T01:26:15.860Z,23.10
2023-02-16T01:28:42.610Z,18.67
2023-02-16T01:31:13.798Z,20.75
2023-02-16T01:33:41.446Z,21.10
2023-02-16T01:36:23.967Z,22.02
2023-02-16T01:38:50.620Z,22.52
2023-02-16T01:41:35.699Z,20.02
2023-02-16T01:44:12.594Z,19.42
2023-02-16T01:46:46.093Z,23.55
2023-02-16T01:49:14.891Z,21.83
2023-02-16T01:52:07.040Z,23.40
2023-02-16T01:54:54.150Z,25.45
2023-02-16T01:57:58.198Z,22.88
2023-02-16T02:00:48.913Z,21.83
2023-02-16T02:03:38.108Z,19.00
2023-02-16T02:06:18.557Z,22.25
2023-02-16T02:08:59.074Z,22.10
2023-02-16T02:11:56.683Z,22.35
2023-02-16T02:14:31.391Z,26.80
2023-02-16T02:17:01.014Z,21.40
2023-02-16T02:19:28.029Z,21.10
2023-02-16T02:22:18.836Z,25.48
2023-02-16T02:25:19.071Z,24.45
2023-02-16T02:28:14.896Z,21.67
2023-02-16T02:30:49.404Z,22.55
2023-02-16T02:33:53.475Z,24.38
2023-02-16T02:36:30.777Z,22.35
2023-02-16T02:39:29.604Z,21.15
2023-02-16T02:42:40.359Z,21.45
2023-02-16T02:45:16.341Z,22.95
2023-02-16T02:47:46.049Z,23.40
2023-02-16T02:51:10.992Z,24.05
2023-02-16T02:53:49.070Z,24.92
2023-02-16T02:56:36.123Z,24.83
2023-02-16T02:59:28.344Z,26.92
2023-02-16T03:02:01.213Z,24.35
2023-02-16T03:04:33.150Z,29.33
2023-02-16T03:07:02.547Z,23.75
2023-02-16T03:09:29.247Z,24.98
2023-02-16T03:12:17.106Z,22.35
2023-02-16T03:14:54.441Z,22.60
2023-02-16T03:17:45.272Z,24.90
2023-02-16T03:20:33.673Z,21.10
2023-02-16T03:23:20.733Z,26.63
2023-02-16T03:26:06.130Z,25.10
2023-02-16T03:28:53.902Z,26.27
2023-02-16T03:31:24.029Z,22.95
2023-02-16T03:33:55.053Z,26.00
2023-02-16T03:36:27.988Z,19.80
2023-02-16T03:38:55.879Z,18.25
2023-02-16T03:41:23.865Z,19.80
2023-02-16T03:43:50.368Z,16.70
2023-02-16T03:46:16.914Z,20.35
2023-02-16T03:48:43.445Z,19.27
2023-02-16T03:51:09.948Z,22.90
2023-02-16T03:53:36.796Z,24.83
2023-02-16T03:56:03.293Z,19.98
2023-02-16T03:58:29.723Z,18.83
2023-02-16T04:00:56.742Z,18.45
2023-02-16T04:03:23.174Z,19.35
2023-02-16T04:05:49.630Z,18.63
2023-02-16T04:08:16.058Z,20.67
2023-02-16T04:10:42.489Z,21.75
2023-02-16T04:13:09.140Z,23.45
2023-02-16T04:15:35.642Z,23.35
2023-02-16T04:18:02.257Z,21.95
2023-02-16T04:20:31.412Z,25.35
2023-02-16T04:22:58.122Z,22.23
2023-02-16T04:25:24.710Z,21.92
2023-02-16T04:27:51.955Z,21.52
2023-02-16T04:30:22.111Z,26.65
2023-02-16T04:32:48.953Z,23.60
2023-02-16T04:35:16.526Z,24.45
2023-02-16T04:37:43.031Z,30.92
2023-02-16T04:40:13.626Z,24.08
2023-02-16T04:42:41.496Z,26.83
2023-02-16T04:45:09.125Z,25.00
2023-02-16T04:47:35.814Z,26.35
2023-02-16T04:50:02.610Z,19.55
2023-02-16T04:52:29.094Z,22.05
2023-02-16T04:54:55.432Z,25.40
2023-02-16T04:57:24.082Z,23.10
2023-02-16T04:59:50.529Z,21.55
2023-02-16T05:02:17.013Z,23.10
2023-02-16T05:04:43.496Z,22.25
2023-02-16T05:07:09.856Z,20.23
2023-02-16T05:09:36.357Z,19.92
2023-02-16T05:12:21.114Z,22.02
2023-02-16T05:14:47.866Z,19.10
2023-02-16T05:17:19.985Z,20.40
2023-02-16T05:19:51.840Z,21.60
2023-02-16T05:22:19.059Z,23.30
2023-02-16T05:24:45.552Z,26.88
2023-02-16T05:27:18.201Z,26.45
2023-02-16T05:29:44.741Z,26.38
2023-02-16T05:32:11.270Z,24.00
2023-02-16T05:34:37.748Z,24.95
2023-02-16T05:37:05.098Z,23.88
2023-02-16T05:39:31.689Z,24.05
2023-02-16T05:41:58.714Z,25.38
2023-02-16T05:44:25.152Z,26.50
2023-02-16T05:46:51.618Z,19.95
2023-02-16T05:49:18.222Z,20.95
2023-02-16T05:51:45.335Z,25.25
2023-02-16T05:54:17.070Z,24.52
2023-02-16T05:56:49.530Z,28.35
2023-02-16T05:59:16.658Z,24.23
2023-02-16T06:01:43.706Z,29.45
2023-02-16T06:04:11.802Z,26.15
2023-02-16T06:06:39.361Z,27.05
2023-02-16T06:09:07.197Z,25.42
2023-02-16T06:11:37.037Z,22.88
2023-02-16T06:14:09.474Z,23.33
2023-02-16T06:16:38.169Z,25.17
2023-02-16T06:19:04.992Z,22.52
2023-02-16T06:21:32.302Z,25.17
2023-02-16T06:23:59.126Z,25.45
2023-02-16T06:26:26.322Z,28.95
2023-02-16T06:28:53.455Z,28.35
2023-02-16T06:31:20.076Z,24.23
2023-02-16T06:33:47.795Z,22.45
2023-02-16T06:36:14.523Z,27.83
2023-02-16T06:38:41.367Z,23.55
2023-02-16T06:41:08.131Z,24.42
2023-02-16T06:43:34.579Z,23.25
2023-02-16T06:46:01.966Z,22.75
2023-02-16T06:48:28.356Z,29.80
2023-02-16T06:50:55.109Z,23.95
2023-02-16T06:53:21.621Z,24.20
2023-02-16T06:55:50.826Z,28.60
2023-02-16T06:58:17.213Z,25.02
2023-02-16T07:00:43.769Z,25.88
2023-02-16T07:03:10.213Z,30.30
2023-02-16T07:05:36.652Z,30.25
2023-02-16T07:08:03.115Z,33.15
2023-02-16T07:10:40.380Z,29.95
2023-02-16T07:13:15.266Z,26.38
2023-02-16T07:15:41.621Z,22.88
2023-02-16T07:18:07.989Z,24.05
2023-02-16T07:20:34.449Z,28.73
2023-02-16T07:23:00.834Z,25.75
2023-02-16T07:25:27.370Z,23.65
2023-02-16T07:27:54.654Z,24.20
2023-02-16T07:30:21.436Z,22.15
2023-02-16T07:32:48.000Z,22.10
2023-02-16T07:35:14.432Z,23.15
2023-02-16T07:37:41.092Z,22.98
2023-02-16T07:40:08.008Z,20.92
2023-02-16T07:42:34.694Z,20.00
2023-02-16T07:45:01.110Z,20.30
2023-02-16T07:47:27.547Z,20.23
2023-02-16T07:49:53.946Z,23.48
2023-02-16T07:52:20.321Z,19.83
2023-02-16T08:09:09.320Z,17.95
2023-02-16T08:11:35.725Z,19.85
2023-02-16T08:14:02.270Z,20.45
2023-02-16T08:16:29.833Z,17.27
2023-02-16T08:18:57.991Z,18.98
2023-02-16T08:21:27.385Z,18.05
2023-02-16T08:23:57.166Z,21.92
2023-02-16T08:26:25.822Z,21.08
2023-02-16T08:28:52.657Z,23.40
2023-02-16T08:31:23.109Z,20.88
2023-02-16T08:34:09.320Z,21.65
2023-02-16T08:36:38.514Z,21.08
2023-02-16T08:39:11.656Z,21.15
2023-02-16T08:41:38.252Z,16.95
2023-02-16T08:44:07.229Z,18.98
2023-02-16T08:46:34.824Z,17.05
2023-02-16T08:51:30.374Z,18.77
2023-02-16T08:54:00.130Z,15.20
2023-02-16T08:56:27.382Z,15.68
2023-02-16T08:58:53.923Z,14.88
2023-02-16T09:01:20.521Z,14.48
2023-02-16T09:03:46.935Z,18.15
2023-02-16T09:06:15.178Z,15.30
2023-02-16T09:08:42.154Z,16.50
2023-02-16T09:11:12.495Z,16.67
2023-02-16T09:13:40.977Z,15.68
2023-02-16T09:16:14.302Z,15.50
2023-02-16T09:18:41.966Z,17.77
2023-02-16T09:21:15.889Z,16.42
2023-02-16T09:23:47.348Z,19.73
2023-02-16T09:26:15.291Z,14.73
2023-02-16T09:28:42.251Z,15.80
2023-02-16T09:31:29.203Z,15.18
2023-02-16T09:34:05.277Z,17.58
2023-02-16T09:36:32.073Z,16.13
2023-02-16T09:38:59.489Z,18.25
2023-02-16T09:41:30.931Z,14.55
2023-02-16T09:44:09.834Z,15.75
2023-02-16T09:46:38.028Z,16.65
2023-02-16T09:49:05.137Z,15.10
2023-02-16T09:51:39.007Z,17.90
2023-02-16T09:54:20.181Z,21.45
2023-02-16T09:56:56.865Z,17.48
2023-02-16T09:59:57.677Z,16.77
2023-02-16T10:05:17.152Z,17.35
2023-02-16T10:07:56.656Z,18.05
2023-02-16T10:10:35.255Z,13.27
2023-02-16T10:13:14.516Z,15.02
2023-02-16T10:15:45.326Z,13.23
2023-02-16T10:18:22.880Z,15.98
2023-02-16T10:20:53.650Z,13.88
2023-02-16T10:23:31.412Z,15.00
2023-02-16T10:26:13.554Z,14.15
2023-02-16T10:28:49.464Z,18.33
2023-02-16T10:31:38.812Z,11.68
2023-02-16T10:34:18.216Z,10.73
2023-02-16T10:36:57.916Z,19.60
2023-02-16T10:39:55.589Z,10.77
2023-02-16T10:42:27.664Z,13.52
2023-02-16T10:45:14.555Z,10.55
2023-02-16T10:47:43.496Z,15.07
2023-02-16T10:50:19.245Z,12.30
2023-02-16T10:52:45.680Z,11.50
2023-02-16T10:55:12.963Z,11.52
2023-02-16T10:57:40.033Z,13.55
2023-02-16T11:00:12.245Z,10.98
2023-02-16T11:02:46.462Z,10.68
2023-02-16T11:05:31.165Z,11.93
2023-02-16T11:08:02.786Z,8.40
2023-02-16T11:10:38.734Z,9.10
2023-02-16T11:13:06.031Z,12.52
2023-02-16T11:15:33.895Z,11.82
2023-02-16T11:18:08.001Z,10.85
2023-02-16T11:20:46.626Z,10.00
2023-02-16T11:23:21.931Z,11.90
2023-02-16T11:26:11.732Z,9.00
2023-02-16T11:28:44.028Z,11.30
2023-02-16T11:31:12.527Z,7.88
2023-02-16T11:33:40.827Z,10.07
2023-02-16T11:36:43.316Z,9.02
2023-02-16T11:39:23.637Z,11.80
2023-02-16T11:41:51.774Z,7.82
2023-02-16T11:44:29.206Z,7.57
2023-02-16T11:46:57.255Z,8.85
2023-02-16T11:49:41.396Z,8.43
2023-02-16T11:52:20.978Z,7.50
2023-02-16T11:55:03.050Z,7.72
2023-02-16T11:57:32.624Z,7.18
2023-02-16T12:00:00.217Z,6.95
2023-02-16T12:02:46.915Z,6.72
2023-02-16T12:05:29.835Z,9.05
2023-02-16T12:08:12.849Z,7.95
2023-02-16T12:10:55.696Z,9.45
2023-02-16T12:13:32.749Z,6.05
2023-02-16T12:16:12.675Z,7.82
2023-02-16T12:19:07.732Z,7.97
2023-02-16T12:21:34.774Z,6.63
2023-02-16T12:24:35.110Z,7.82
2023-02-16T12:27:16.801Z,6.05
2023-02-16T12:29:55.946Z,7.80
2023-02-16T12:32:43.511Z,6.90
2023-02-16T12:38:17.742Z,6.25
2023-02-16T12:41:15.450Z,5.85
2023-02-16T12:43:46.434Z,6.72
2023-02-16T12:46:29.620Z,7.47
2023-02-16T12:49:04.073Z,9.63
2023-02-16T12:51:42.225Z,5.30
2023-02-16T12:54:17.016Z,7.68
2023-02-16T12:56:48.198Z,12.50
2023-02-16T12:59:24.616Z,6.30
2023-02-16T13:01:55.970Z,5.60
2023-02-16T13:04:46.208Z,7.45
2023-02-16T13:07:36.014Z,6.60
2023-02-16T13:10:14.879Z,5.60
2023-02-16T13:30:55.418Z,4.75
2023-02-16T13:33:51.068Z,5.20
2023-02-16T13:36:34.066Z,6.95
2023-02-16T13:39:09.313Z,6.60
2023-02-16T13:41:48.313Z,6.47
2023-02-16T13:44:24.714Z,4.63
2023-02-16T13:46:53.929Z,7.22
2023-02-16T13:49:32.186Z,13.02
2023-02-16T13:51:59.418Z,4.75
2023-02-16T13:54:34.318Z,7.35
2023-02-16T13:57:05.109Z,5.65
2023-02-16T13:59:34.557Z,4.80
2023-02-16T14:02:01.533Z,4.07
2023-02-16T14:04:30.976Z,4.88
2023-02-16T14:07:03.436Z,6.20
2023-02-16T14:09:46.905Z,6.68
2023-02-16T14:12:17.513Z,6.38
2023-02-16T14:14:43.853Z,6.13
2023-02-16T14:17:19.443Z,6.15
2023-02-16T14:19:56.413Z,6.68
2023-02-16T14:22:47.643Z,7.85
2023-02-16T14:25:20.330Z,6.50
2023-02-16T14:27:51.796Z,6.32
2023-02-16T14:30:28.813Z,5.53
2023-02-16T14:33:16.214Z,5.88
2023-02-16T14:36:02.847Z,6.20
2023-02-16T14:38:37.721Z,6.82
2023-02-16T14:41:08.745Z,9.20
2023-02-16T14:43:45.697Z,6.47
2023-02-16T14:46:21.559Z,5.28
2023-02-16T14:49:25.927Z,6.53
2023-02-16T14:52:15.237Z,8.43
2023-02-16T14:55:08.946Z,7.07
2023-02-16T14:57:45.730Z,6.18
2023-02-16T15:00:19.818Z,6.18
2023-02-16T15:02:57.432Z,7.50
2023-02-16T15:05:34.075Z,5.15
2023-02-16T15:08:19.065Z,9.82
2023-02-16T15:10:48.522Z,6.35
2023-02-16T15:13:24.175Z,6.57
2023-02-16T15:15:55.914Z,6.38
2023-02-16T15:18:25.837Z,5.90
2023-02-16T15:20:55.774Z,5.82
2023-02-16T15:23:30.650Z,9.45
2023-02-16T15:26:00.818Z,6.22
2023-02-16T15:28:38.967Z,7.78
2023-02-16T15:31:08.165Z,7.93
2023-02-16T15:33:38.188Z,5.70
2023-02-16T15:36:10.627Z,7.55
2023-02-16T15:38:39.679Z,7.70
2023-02-16T15:41:14.435Z,7.15
2023-02-16T15:43:50.876Z,9.27
2023-02-16T15:46:26.550Z,5.90
2023-02-16T15:48:53.099Z,6.88
2023-02-16T15:51:26.618Z,10.15
2023-02-16T15:53:56.226Z,7.57
2023-02-16T15:56:43.354Z,6.20
2023-02-16T15:59:34.308Z,7.43
2023-02-16T16:02:08.702Z,10.30
2023-02-16T16:04:38.624Z,6.93
2023-02-16T16:07:08.221Z,6.93
2023-02-16T16:09:36.603Z,7.22
2023-02-16T16:12:06.720Z,9.15
2023-02-16T16:14:35.692Z,7.65
2023-02-16T16:17:03.419Z,7.38
2023-02-16T16:22:01.268Z,7.80
2023-02-16T16:24:38.828Z,8.70
2023-02-16T16:27:14.190Z,8.40
2023-02-16T16:29:46.218Z,13.85
2023-02-16T16:32:18.636Z,6.32
2023-02-16T16:34:45.783Z,6.82
2023-02-16T16:37:34.120Z,6.70
2023-02-16T16:40:22.304Z,8.30
2023-02-16T16:43:07.183Z,5.65
2023-02-16T16:45:37.884Z,8.02
2023-02-16T16:48:29.073Z,6.85
2023-02-16T16:51:22.851Z,8.63
2023-02-16T16:54:05.910Z,5.78
2023-02-16T16:56:38.001Z,7.85
2023-02-16T16:59:04.893Z,7.70
2023-02-16T17:01:31.992Z,6.88
2023-02-16T17:03:59.305Z,7.28
2023-02-16T17:06:26.546Z,7.78
2023-02-16T17:08:54.449Z,7.57
2023-02-16T17:11:32.258Z,7.63
2023-02-16T17:14:07.177Z,9.13
2023-02-16T17:16:39.392Z,7.60
2023-02-16T17:19:05.802Z,8.13
2023-02-16T17:21:32.144Z,10.77
2023-02-16T17:23:58.594Z,10.70
2023-02-16T17:26:25.171Z,12.25
2023-02-16T17:28:51.563Z,13.30
2023-02-16T17:31:18.463Z,11.63
2023-02-16T17:33:45.047Z,11.80
2023-02-16T17:36:15.047Z,9.75
2023-02-16T17:38:41.894Z,10.35
2023-02-16T17:41:19.169Z,11.38
2023-02-16T17:43:45.815Z,11.00
2023-02-16T17:46:13.259Z,12.30
2023-02-16T17:48:39.723Z,12.73
2023-02-16T17:51:13.316Z,10.40
2023-02-16T17:53:41.145Z,6.82
2023-02-16T17:56:12.468Z,10.88
2023-02-16T17:58:39.231Z,8.68
2023-02-16T18:01:06.001Z,11.65
2023-02-16T18:03:32.354Z,13.77
2023-02-16T18:05:58.823Z,15.18
2023-02-16T18:08:25.153Z,14.35
2023-02-16T18:10:54.160Z,12.60
2023-02-16T18:13:20.858Z,23.98
2023-02-16T18:15:48.944Z,11.27
2023-02-16T18:18:16.984Z,10.27
2023-02-16T18:20:43.593Z,10.50
2023-02-16T18:23:10.463Z,9.52
2023-02-16T18:25:37.209Z,9.13
2023-02-16T18:28:03.807Z,7.75
2023-02-16T18:30:30.720Z,9.32
2023-02-16T18:32:57.333Z,8.95
2023-02-16T18:35:23.854Z,8.93
2023-02-16T18:37:50.369Z,14.73
2023-02-16T18:40:19.594Z,8.55
2023-02-16T18:42:46.712Z,9.18
2023-02-16T18:45:13.175Z,8.73
2023-02-16T18:47:39.525Z,9.55
2023-02-16T18:50:06.471Z,7.35
2023-02-16T18:52:32.902Z,7.20
2023-02-16T18:54:59.423Z,7.20
2023-02-16T18:57:25.911Z,7.85
2023-02-16T18:59:52.351Z,8.15
2023-02-16T19:02:18.824Z,9.52
2023-02-16T19:04:45.245Z,6.97
2023-02-16T19:07:11.776Z,8.90
2023-02-16T19:09:38.297Z,7.25
2023-02-16T19:12:04.934Z,9.82
2023-02-16T19:14:31.291Z,9.35
2023-02-16T19:16:57.735Z,8.35
2023-02-16T19:19:24.251Z,8.32
2023-02-16T19:21:50.746Z,9.07
2023-02-16T19:24:17.095Z,9.70
2023-02-16T19:26:43.520Z,10.25
2023-02-16T19:29:10.132Z,8.35
2023-02-16T19:31:36.672Z,10.07
2023-02-16T19:34:03.242Z,9.70
2023-02-16T19:36:31.951Z,10.18
2023-02-16T19:38:58.692Z,12.13
2023-02-16T19:41:28.092Z,12.15
2023-02-16T19:43:55.035Z,10.68
2023-02-16T19:46:21.807Z,9.68
2023-02-16T19:48:48.267Z,13.75
2023-02-16T19:51:15.753Z,11.23
2023-02-16T19:53:43.215Z,10.88
2023-02-16T19:56:12.945Z,8.18
2023-02-16T19:58:39.466Z,8.43
2023-02-16T20:01:10.988Z,11.38
2023-02-16T20:03:37.674Z,17.17
2023-02-16T20:06:13.348Z,16.45
2023-02-16T20:08:39.917Z,11.82
2023-02-16T20:11:08.386Z,14.90
2023-02-16T20:13:36.086Z,14.15
2023-02-16T20:16:05.353Z,13.45
2023-02-16T20:18:32.057Z,21.00
2023-02-16T20:21:07.111Z,17.42
2023-02-16T20:23:35.126Z,12.35
2023-02-16T20:26:07.102Z,16.35
2023-02-16T20:28:34.064Z,12.15
2023-02-16T20:31:00.901Z,13.73
2023-02-16T20:33:27.346Z,12.07
2023-02-16T20:35:53.804Z,13.13
2023-02-16T20:38:20.268Z,14.27
2023-02-16T20:40:46.654Z,13.10
2023-02-16T20:43:15.502Z,12.73
2023-02-16T20:45:42.936Z,14.25
2023-02-16T20:48:10.156Z,11.57
2023-02-16T20:50:37.188Z,12.52
2023-02-16T20:53:04.402Z,12.65
2023-02-16T20:55:31.820Z,12.25
2023-02-16T20:57:59.929Z,14.85
2023-02-16T21:00:26.878Z,11.35
2023-02-16T21:02:53.953Z,13.20
2023-02-16T21:05:20.812Z,12.55
2023-02-16T21:07:49.139Z,9.88
2023-02-16T21:10:16.277Z,11.93
2023-02-16T21:12:42.754Z,10.82
2023-02-16T21:15:10.014Z,9.95
2023-02-16T21:17:37.078Z,17.17
2023-02-16T21:20:05.246Z,13.07
2023-02-16T21:22:31.674Z,10.38
2023-02-16T21:24:58.079Z,9.38
2023-02-16T21:27:24.491Z,9.68
2023-02-16T21:29:50.949Z,9.15
2023-02-16T21:32:17.599Z,13.57
2023-02-16T21:34:44.582Z,12.75
2023-02-16T21:37:11.041Z,9.35
2023-02-16T21:39:56.046Z,10.77
2023-02-16T21:42:22.551Z,12.90
2023-02-16T21:45:08.934Z,12.32
2023-02-16T21:47:53.908Z,10.77
2023-02-16T21:50:20.296Z,10.45
2023-02-16T21:52:46.702Z,9.55
2023-02-16T21:55:31.543Z,9.85
2023-02-16T21:57:57.898Z,9.07
2023-02-16T22:00:24.546Z,10.95
2023-02-16T22:02:51.202Z,10.55
2023-02-16T22:05:17.593Z,9.98
2023-02-16T22:07:44.018Z,9.95
2023-02-16T22:10:10.515Z,10.73
2023-02-16T22:12:36.899Z,10.18
2023-02-16T22:15:03.441Z,9.40
2023-02-16T22:17:29.842Z,10.43
2023-02-16T22:19:56.183Z,9.23
2023-02-16T22:22:22.561Z,15.98
2023-02-16T22:24:48.986Z,8.63
2023-02-16T22:27:15.397Z,8.63
2023-02-16T22:29:41.818Z,8.43
2023-02-16T22:32:12.590Z,11.05
2023-02-16T22:34:39.512Z,9.70
2023-02-16T22:37:06.105Z,7.47
2023-02-16T22:39:32.626Z,6.65
2023-02-16T22:41:58.955Z,10.30
2023-02-16T22:44:25.345Z,9.35
2023-02-16T22:46:51.816Z,8.27
2023-02-16T22:49:18.446Z,10.73
2023-02-16T22:51:44.792Z,8.25
2023-02-16T22:54:14.264Z,9.38
2023-02-16T22:56:40.954Z,8.65
2023-02-16T22:59:07.322Z,8.57
2023-02-16T23:01:33.772Z,7.80
2023-02-16T23:04:01.214Z,6.63
2023-02-16T23:06:36.404Z,9.48
2023-02-16T23:09:08.704Z,6.60
2023-02-16T23:11:35.929Z,9.20
2023-02-16T23:14:02.395Z,6.60
2023-02-16T23:16:29.033Z,6.13
2023-02-16T23:18:57.430Z,10.77
2023-02-16T23:21:25.536Z,8.57
2023-02-16T23:23:53.540Z,7.78
2023-02-16T23:26:22.267Z,11.43
2023-02-16T23:28:54.149Z,8.32
2023-02-16T23:31:22.158Z,9.65
2023-02-16T23:33:49.442Z,9.80
2023-02-16T23:36:16.174Z,6.60
2023-02-16T23:38:42.580Z,7.80
2023-02-16T23:41:12.402Z,9.57
2023-02-16T23:43:39.025Z,7.68
2023-02-16T23:46:06.517Z,13.10
2023-02-16T23:48:33.146Z,6.30
2023-02-16T23:50:59.975Z,7.88
2023-02-16T23:53:27.694Z,6.30
2023-02-16T23:56:02.656Z,7.53
2023-02-16T23:58:30.475Z,7.53
